PWSweather.com
Personal Weather Stations
Station Observations
GRACELEHAN
The Grace C. Lehan Memorial Weather Station, West Hartford, CT 06107

The Grace C. Lehan Memorial Weather StationWest Hartford, CT 06107

Lat: 41.745629, Lon: -72.7443516

Elevation: 136

Station Type: Davis Vantage Pro2 Plus

Latest ConditionsUpdated 10:44:16 AM EST Thursday, Nov 15, 2018
Currently Today's Max Today's Min Today's Average
Temperature 28.8°F-1.8°C 28.8°F-1.8°C 25.8°F-3.4°C 27.0°F-2.8°C
Dew Point 14.3°F-9.8°C 14.9°F-9.5°C 11.3°F-11.5°C 13.2°F-10.4°C
Winds 2.0 mph NE3.2 kmh NE 6.0 mph -9.7 kmh - - 1.0 mph 1.6 kmh
Wind Gusts 4.0 mph6.4 kmh 10.0 mph16.1 kmh - -
Humidity 54% 61% 49% 56%
Pressure 30.57 in1035.2 mb 30.62 in1036.9 mb 30.56 in1034.9 mb -
Hour Temp Dew Point Humidity Winds Wind Gusts Pressure Precip Precip Rate Daily Precip Total
10:44 AM 28.8°F-1.8°C 14.3°F-9.8°C 54% 2.0 mph NE3.2 kmh NE 4.0 mph6.4 kmh 30.57 in1035.2 mb 0.00 in0.0 mm 0.00 in0.0 mm 0.00 in0.0 mm
10:42 AM 28.7°F-1.8°C 14.2°F-9.9°C 54% Calm Calm 4.0 mph6.4 kmh 30.57 in1035.2 mb 0.00 in0.0 mm 0.00 in0.0 mm 0.00 in0.0 mm
10:40 AM 28.7°F-1.8°C 13.8°F-10.1°C 53% Calm Calm 4.0 mph6.4 kmh 30.57 in1035.2 mb 0.00 in0.0 mm 0.00 in0.0 mm 0.00 in0.0 mm
10:38 AM 28.7°F-1.8°C 13.3°F-10.4°C 52% Calm Calm 4.0 mph6.4 kmh 30.57 in1035.2 mb 0.00 in0.0 mm 0.00 in0.0 mm 0.00 in0.0 mm
10:36 AM 28.7°F-1.8°C 13.8°F-10.1°C 53% 1.0 mph NE1.6 kmh NE 4.0 mph6.4 kmh 30.57 in1035.2 mb 0.00 in0.0 mm 0.00 in0.0 mm 0.00 in0.0 mm
10:34 AM 28.6°F-1.9°C 13.7°F-10.2°C 53% 3.0 mph NE4.8 kmh NE 4.0 mph6.4 kmh 30.57 in1035.2 mb 0.00 in0.0 mm 0.00 in0.0 mm 0.00 in0.0 mm
10:30 AM 28.5°F-1.9°C 14.4°F-9.8°C 55% 2.0 mph E3.2 kmh E 4.0 mph6.4 kmh 30.58 in1035.6 mb 0.00 in0.0 mm 0.00 in0.0 mm 0.00 in0.0 mm
10:28 AM 28.5°F-1.9°C 14.4°F-9.8°C 55% Calm Calm 4.0 mph6.4 kmh 30.58 in1035.6 mb 0.00 in0.0 mm 0.00 in0.0 mm 0.00 in0.0 mm
10:26 AM 28.5°F-1.9°C 14.0°F-10.0°C 54% Calm Calm 4.0 mph6.4 kmh 30.58 in1035.6 mb 0.00 in0.0 mm 0.00 in0.0 mm 0.00 in0.0 mm
10:24 AM 28.4°F-2.0°C 13.9°F-10.1°C 54% Calm Calm 4.0 mph6.4 kmh 30.58 in1035.6 mb 0.00 in0.0 mm 0.00 in0.0 mm 0.00 in0.0 mm
10:22 AM 28.4°F-2.0°C 13.9°F-10.1°C 54% 1.0 mph NNE1.6 kmh NNE 4.0 mph6.4 kmh 30.58 in1035.6 mb 0.00 in0.0 mm 0.00 in0.0 mm 0.00 in0.0 mm
10:20 AM 28.4°F-2.0°C 14.3°F-9.8°C 55% 2.0 mph NNE3.2 kmh NNE 4.0 mph6.4 kmh 30.59 in1035.9 mb 0.00 in0.0 mm 0.00 in0.0 mm 0.00 in0.0 mm
10:18 AM 28.3°F-2.1°C 13.8°F-10.1°C 54% 2.0 mph NNE3.2 kmh NNE 4.0 mph6.4 kmh 30.58 in1035.6 mb 0.00 in0.0 mm 0.00 in0.0 mm 0.00 in0.0 mm
10:16 AM 28.3°F-2.1°C 14.2°F-9.9°C 55% Calm Calm 4.0 mph6.4 kmh 30.59 in1035.9 mb 0.00 in0.0 mm 0.00 in0.0 mm 0.00 in0.0 mm
10:14 AM 28.2°F-2.1°C 14.1°F-9.9°C 55% Calm Calm 4.0 mph6.4 kmh 30.59 in1035.9 mb 0.00 in0.0 mm 0.00 in0.0 mm 0.00 in0.0 mm
10:12 AM 28.2°F-2.1°C 13.3°F-10.4°C 53% Calm Calm 4.0 mph6.4 kmh 30.59 in1035.9 mb 0.00 in0.0 mm 0.00 in0.0 mm 0.00 in0.0 mm
10:10 AM 28.2°F-2.1°C 12.9°F-10.6°C 52% 3.0 mph NE4.8 kmh NE 4.0 mph6.4 kmh 30.59 in1035.9 mb 0.00 in0.0 mm 0.00 in0.0 mm 0.00 in0.0 mm
10:08 AM 28.2°F-2.1°C 12.9°F-10.6°C 52% 1.0 mph NE1.6 kmh NE 4.0 mph6.4 kmh 30.59 in1035.9 mb 0.00 in0.0 mm 0.00 in0.0 mm 0.00 in0.0 mm
10:06 AM 28.2°F-2.1°C 13.3°F-10.4°C 53% 1.0 mph N1.6 kmh N 4.0 mph6.4 kmh 30.59 in1035.9 mb 0.00 in0.0 mm 0.00 in0.0 mm 0.00 in0.0 mm
10:04 AM 28.1°F-2.2°C 12.8°F-10.7°C 52% Calm Calm 4.0 mph6.4 kmh 30.59 in1035.9 mb 0.00 in0.0 mm 0.00 in0.0 mm 0.00 in0.0 mm
10:02 AM 28.1°F-2.2°C 12.8°F-10.7°C 52% 3.0 mph ENE4.8 kmh ENE 3.0 mph4.8 kmh 30.59 in1035.9 mb 0.00 in0.0 mm 0.00 in0.0 mm 0.00 in0.0 mm
10:00 AM 28.1°F-2.2°C 13.6°F-10.2°C 54% 2.0 mph ENE3.2 kmh ENE 6.0 mph9.7 kmh 30.59 in1035.9 mb 0.00 in0.0 mm 0.00 in0.0 mm 0.00 in0.0 mm
09:58 AM 28.1°F-2.2°C 14.0°F-10.0°C 55% 2.0 mph NE3.2 kmh NE 5.0 mph8.0 kmh 30.59 in1035.9 mb 0.00 in0.0 mm 0.00 in0.0 mm 0.00 in0.0 mm
09:56 AM 28.0°F-2.2°C 13.9°F-10.1°C 55% 1.0 mph NE1.6 kmh NE 5.0 mph8.0 kmh 30.59 in1035.9 mb 0.00 in0.0 mm 0.00 in0.0 mm 0.00 in0.0 mm
09:54 AM 28.0°F-2.2°C 13.5°F-10.3°C 54% 2.0 mph NE3.2 kmh NE 5.0 mph8.0 kmh 30.58 in1035.6 mb 0.00 in0.0 mm 0.00 in0.0 mm 0.00 in0.0 mm
09:52 AM 27.9°F-2.3°C 13.4°F-10.3°C 54% 3.0 mph NE4.8 kmh NE 5.0 mph8.0 kmh 30.58 in1035.6 mb 0.00 in0.0 mm 0.00 in0.0 mm 0.00 in0.0 mm
09:50 AM 27.9°F-2.3°C 13.8°F-10.1°C 55% 4.0 mph NE6.4 kmh NE 5.0 mph8.0 kmh 30.59 in1035.9 mb 0.00 in0.0 mm 0.00 in0.0 mm 0.00 in0.0 mm
09:48 AM 27.8°F-2.3°C 13.3°F-10.4°C 54% Calm Calm 5.0 mph8.0 kmh 30.58 in1035.6 mb 0.00 in0.0 mm 0.00 in0.0 mm 0.00 in0.0 mm
09:46 AM 27.7°F-2.4°C 14.1°F-9.9°C 56% 1.0 mph NNE1.6 kmh NNE 5.0 mph8.0 kmh 30.59 in1035.9 mb 0.00 in0.0 mm 0.00 in0.0 mm 0.00 in0.0 mm
09:44 AM 27.7°F-2.4°C 14.5°F-9.7°C 57% Calm Calm 5.0 mph8.0 kmh 30.59 in1035.9 mb 0.00 in0.0 mm 0.00 in0.0 mm 0.00 in0.0 mm
09:42 AM 27.6°F-2.4°C 14.0°F-10.0°C 56% Calm Calm 5.0 mph8.0 kmh 30.58 in1035.6 mb 0.00 in0.0 mm 0.00 in0.0 mm 0.00 in0.0 mm
09:40 AM 27.5°F-2.5°C 13.9°F-10.1°C 56% 1.0 mph NNE1.6 kmh NNE 5.0 mph8.0 kmh 30.58 in1035.6 mb 0.00 in0.0 mm 0.00 in0.0 mm 0.00 in0.0 mm
09:38 AM 27.4°F-2.6°C 13.8°F-10.1°C 56% 1.0 mph NNE1.6 kmh NNE 5.0 mph8.0 kmh 30.58 in1035.6 mb 0.00 in0.0 mm 0.00 in0.0 mm 0.00 in0.0 mm
09:36 AM 27.4°F-2.6°C 13.4°F-10.3°C 55% Calm Calm 5.0 mph8.0 kmh 30.58 in1035.6 mb 0.00 in0.0 mm 0.00 in0.0 mm 0.00 in0.0 mm
09:34 AM 27.3°F-2.6°C 12.9°F-10.6°C 54% Calm Calm 5.0 mph8.0 kmh 30.58 in1035.6 mb 0.00 in0.0 mm 0.00 in0.0 mm 0.00 in0.0 mm
09:30 AM 27.3°F-2.6°C 12.9°F-10.6°C 54% 1.0 mph NE1.6 kmh NE 7.0 mph11.3 kmh 30.57 in1035.2 mb 0.00 in0.0 mm 0.00 in0.0 mm 0.00 in0.0 mm
09:28 AM 27.3°F-2.6°C 12.9°F-10.6°C 54% 1.0 mph NE1.6 kmh NE 7.0 mph11.3 kmh 30.57 in1035.2 mb 0.00 in0.0 mm 0.00 in0.0 mm 0.00 in0.0 mm
09:26 AM 27.3°F-2.6°C 13.7°F-10.2°C 56% 2.0 mph NE3.2 kmh NE 7.0 mph11.3 kmh 30.57 in1035.2 mb 0.00 in0.0 mm 0.00 in0.0 mm 0.00 in0.0 mm
09:24 AM 27.2°F-2.7°C 13.6°F-10.2°C 56% 3.0 mph N4.8 kmh N 5.0 mph8.0 kmh 30.56 in1034.9 mb 0.00 in0.0 mm 0.00 in0.0 mm 0.00 in0.0 mm
09:22 AM 27.1°F-2.7°C 13.5°F-10.3°C 56% 2.0 mph N3.2 kmh N 5.0 mph8.0 kmh 30.57 in1035.2 mb 0.00 in0.0 mm 0.00 in0.0 mm 0.00 in0.0 mm
09:20 AM 27.0°F-2.8°C 13.4°F-10.3°C 56% 1.0 mph NNW1.6 kmh NNW 5.0 mph8.0 kmh 30.57 in1035.2 mb 0.00 in0.0 mm 0.00 in0.0 mm 0.00 in0.0 mm
09:18 AM 27.0°F-2.8°C 13.8°F-10.1°C 57% Calm Calm 5.0 mph8.0 kmh 30.57 in1035.2 mb 0.00 in0.0 mm 0.00 in0.0 mm 0.00 in0.0 mm
09:16 AM 26.9°F-2.8°C 13.7°F-10.2°C 57% Calm Calm 5.0 mph8.0 kmh 30.57 in1035.2 mb 0.00 in0.0 mm 0.00 in0.0 mm 0.00 in0.0 mm
09:14 AM 26.8°F-2.9°C 13.6°F-10.2°C 57% 1.0 mph ENE1.6 kmh ENE 5.0 mph8.0 kmh 30.56 in1034.9 mb 0.00 in0.0 mm 0.00 in0.0 mm 0.00 in0.0 mm
09:12 AM 26.7°F-2.9°C 13.5°F-10.3°C 57% Calm Calm 5.0 mph8.0 kmh 30.56 in1034.9 mb 0.00 in0.0 mm 0.00 in0.0 mm 0.00 in0.0 mm
09:10 AM 26.7°F-2.9°C 13.1°F-10.5°C 56% Calm Calm 5.0 mph8.0 kmh 30.56 in1034.9 mb 0.00 in0.0 mm 0.00 in0.0 mm 0.00 in0.0 mm
09:08 AM 26.7°F-2.9°C 13.1°F-10.5°C 56% 1.0 mph ENE1.6 kmh ENE 5.0 mph8.0 kmh 30.56 in1034.9 mb 0.00 in0.0 mm 0.00 in0.0 mm 0.00 in0.0 mm
09:06 AM 26.7°F-2.9°C 12.7°F-10.7°C 55% Calm Calm 5.0 mph8.0 kmh 30.56 in1034.9 mb 0.00 in0.0 mm 0.00 in0.0 mm 0.00 in0.0 mm
09:04 AM 26.7°F-2.9°C 12.7°F-10.7°C 55% 1.0 mph ENE1.6 kmh ENE 5.0 mph8.0 kmh 30.56 in1034.9 mb 0.00 in0.0 mm 0.00 in0.0 mm 0.00 in0.0 mm
09:02 AM 26.7°F-2.9°C 12.7°F-10.7°C 55% 2.0 mph E3.2 kmh E 3.0 mph4.8 kmh 30.56 in1034.9 mb 0.00 in0.0 mm 0.00 in0.0 mm 0.00 in0.0 mm
09:00 AM 26.7°F-2.9°C 13.1°F-10.5°C 56% 3.0 mph E4.8 kmh E 9.0 mph14.5 kmh 30.56 in1034.9 mb 0.00 in0.0 mm 0.00 in0.0 mm 0.00 in0.0 mm
08:58 AM 26.7°F-2.9°C 13.1°F-10.5°C 56% 2.0 mph NE3.2 kmh NE 9.0 mph14.5 kmh 30.57 in1035.2 mb 0.00 in0.0 mm 0.00 in0.0 mm 0.00 in0.0 mm
08:56 AM 26.7°F-2.9°C 13.1°F-10.5°C 56% 3.0 mph NE4.8 kmh NE 9.0 mph14.5 kmh 30.57 in1035.2 mb 0.00 in0.0 mm 0.00 in0.0 mm 0.00 in0.0 mm
08:54 AM 26.7°F-2.9°C 13.1°F-10.5°C 56% 2.0 mph NE3.2 kmh NE 9.0 mph14.5 kmh 30.58 in1035.6 mb 0.00 in0.0 mm 0.00 in0.0 mm 0.00 in0.0 mm
08:52 AM 26.6°F-3.0°C 13.0°F-10.6°C 56% 6.0 mph NE9.7 kmh NE 9.0 mph14.5 kmh 30.58 in1035.6 mb 0.00 in0.0 mm 0.00 in0.0 mm 0.00 in0.0 mm
08:50 AM 26.7°F-2.9°C 13.5°F-10.3°C 57% 4.0 mph NE6.4 kmh NE 7.0 mph11.3 kmh 30.58 in1035.6 mb 0.00 in0.0 mm 0.00 in0.0 mm 0.00 in0.0 mm
08:48 AM 26.6°F-3.0°C 13.4°F-10.3°C 57% Calm Calm 6.0 mph9.7 kmh 30.58 in1035.6 mb 0.00 in0.0 mm 0.00 in0.0 mm 0.00 in0.0 mm
08:46 AM 26.6°F-3.0°C 13.0°F-10.6°C 56% 2.0 mph N3.2 kmh N 6.0 mph9.7 kmh 30.58 in1035.6 mb 0.00 in0.0 mm 0.00 in0.0 mm 0.00 in0.0 mm
08:44 AM 26.6°F-3.0°C 13.0°F-10.6°C 56% 1.0 mph ENE1.6 kmh ENE 6.0 mph9.7 kmh 30.58 in1035.6 mb 0.00 in0.0 mm 0.00 in0.0 mm 0.00 in0.0 mm
08:42 AM 26.6°F-3.0°C 13.0°F-10.6°C 56% 5.0 mph ENE8.0 kmh ENE 5.0 mph8.0 kmh 30.58 in1035.6 mb 0.00 in0.0 mm 0.00 in0.0 mm 0.00 in0.0 mm
08:40 AM 26.6°F-3.0°C 13.4°F-10.3°C 57% 3.0 mph NE4.8 kmh NE 5.0 mph8.0 kmh 30.59 in1035.9 mb 0.00 in0.0 mm 0.00 in0.0 mm 0.00 in0.0 mm
08:38 AM 26.5°F-3.1°C 13.3°F-10.4°C 57% Calm Calm 5.0 mph8.0 kmh 30.60 in1036.2 mb 0.00 in0.0 mm 0.00 in0.0 mm 0.00 in0.0 mm
08:36 AM 26.5°F-3.1°C 12.9°F-10.6°C 56% 1.0 mph NE1.6 kmh NE 5.0 mph8.0 kmh 30.59 in1035.9 mb 0.00 in0.0 mm 0.00 in0.0 mm 0.00 in0.0 mm
08:34 AM 26.5°F-3.1°C 12.9°F-10.6°C 56% 3.0 mph ENE4.8 kmh ENE 5.0 mph8.0 kmh 30.60 in1036.2 mb 0.00 in0.0 mm 0.00 in0.0 mm 0.00 in0.0 mm
08:30 AM 26.5°F-3.1°C 13.7°F-10.2°C 58% 4.0 mph E6.4 kmh E 10.0 mph16.1 kmh 30.60 in1036.2 mb 0.00 in0.0 mm 0.00 in0.0 mm 0.00 in0.0 mm
08:28 AM 26.4°F-3.1°C 13.6°F-10.2°C 58% Calm Calm 10.0 mph16.1 kmh 30.61 in1036.6 mb 0.00 in0.0 mm 0.00 in0.0 mm 0.00 in0.0 mm
08:26 AM 26.4°F-3.1°C 13.6°F-10.2°C 58% Calm Calm 10.0 mph16.1 kmh 30.61 in1036.6 mb 0.00 in0.0 mm 0.00 in0.0 mm 0.00 in0.0 mm
08:24 AM 26.3°F-3.2°C 13.9°F-10.1°C 59% 2.0 mph NE3.2 kmh NE 10.0 mph16.1 kmh 30.61 in1036.6 mb 0.00 in0.0 mm 0.00 in0.0 mm 0.00 in0.0 mm
08:22 AM 26.2°F-3.2°C 14.2°F-9.9°C 60% 2.0 mph ENE3.2 kmh ENE 10.0 mph16.1 kmh 30.61 in1036.6 mb 0.00 in0.0 mm 0.00 in0.0 mm 0.00 in0.0 mm
08:20 AM 26.2°F-3.2°C 13.5°F-10.3°C 58% Calm Calm 10.0 mph16.1 kmh 30.61 in1036.6 mb 0.00 in0.0 mm 0.00 in0.0 mm 0.00 in0.0 mm
08:18 AM 26.2°F-3.2°C 13.5°F-10.3°C 58% 2.0 mph ENE3.2 kmh ENE 10.0 mph16.1 kmh 30.61 in1036.6 mb 0.00 in0.0 mm 0.00 in0.0 mm 0.00 in0.0 mm
08:16 AM 26.1°F-3.3°C 13.0°F-10.6°C 57% Calm Calm 10.0 mph16.1 kmh 30.60 in1036.2 mb 0.00 in0.0 mm 0.00 in0.0 mm 0.00 in0.0 mm
08:14 AM 26.1°F-3.3°C 12.6°F-10.8°C 56% 2.0 mph ENE3.2 kmh ENE 10.0 mph16.1 kmh 30.60 in1036.2 mb 0.00 in0.0 mm 0.00 in0.0 mm 0.00 in0.0 mm
08:12 AM 26.1°F-3.3°C 13.0°F-10.6°C 57% 3.0 mph NNE4.8 kmh NNE 10.0 mph16.1 kmh 30.61 in1036.6 mb 0.00 in0.0 mm 0.00 in0.0 mm 0.00 in0.0 mm
08:10 AM 26.1°F-3.3°C 13.0°F-10.6°C 57% 3.0 mph NE4.8 kmh NE 10.0 mph16.1 kmh 30.61 in1036.6 mb 0.00 in0.0 mm 0.00 in0.0 mm 0.00 in0.0 mm
08:08 AM 26.1°F-3.3°C 13.4°F-10.3°C 58% Calm Calm 10.0 mph16.1 kmh 30.60 in1036.2 mb 0.00 in0.0 mm 0.00 in0.0 mm 0.00 in0.0 mm
08:06 AM 26.1°F-3.3°C 13.0°F-10.6°C 57% Calm Calm 6.0 mph9.7 kmh 30.59 in1035.9 mb 0.00 in0.0 mm 0.00 in0.0 mm 0.00 in0.0 mm
08:04 AM 26.1°F-3.3°C 13.0°F-10.6°C 57% 1.0 mph ENE1.6 kmh ENE 6.0 mph9.7 kmh 30.59 in1035.9 mb 0.00 in0.0 mm 0.00 in0.0 mm 0.00 in0.0 mm
08:02 AM 26.1°F-3.3°C 13.0°F-10.6°C 57% 4.0 mph NE6.4 kmh NE 6.0 mph9.7 kmh 30.59 in1035.9 mb 0.00 in0.0 mm 0.00 in0.0 mm 0.00 in0.0 mm
08:00 AM 26.0°F-3.3°C 12.9°F-10.6°C 57% Calm Calm 7.0 mph11.3 kmh 30.59 in1035.9 mb 0.00 in0.0 mm 0.00 in0.0 mm 0.00 in0.0 mm
07:58 AM 26.0°F-3.3°C 12.9°F-10.6°C 57% 3.0 mph NE4.8 kmh NE 7.0 mph11.3 kmh 30.60 in1036.2 mb 0.00 in0.0 mm 0.00 in0.0 mm 0.00 in0.0 mm
07:56 AM 26.0°F-3.3°C 12.9°F-10.6°C 57% 1.0 mph NE1.6 kmh NE 7.0 mph11.3 kmh 30.60 in1036.2 mb 0.00 in0.0 mm 0.00 in0.0 mm 0.00 in0.0 mm
07:54 AM 26.1°F-3.3°C 13.0°F-10.6°C 57% Calm Calm 6.0 mph9.7 kmh 30.60 in1036.2 mb 0.00 in0.0 mm 0.00 in0.0 mm 0.00 in0.0 mm
07:52 AM 26.0°F-3.3°C 12.9°F-10.6°C 57% 3.0 mph ENE4.8 kmh ENE 6.0 mph9.7 kmh 30.59 in1035.9 mb 0.00 in0.0 mm 0.00 in0.0 mm 0.00 in0.0 mm
07:50 AM 26.0°F-3.3°C 12.9°F-10.6°C 57% 5.0 mph ENE8.0 kmh ENE 6.0 mph9.7 kmh 30.59 in1035.9 mb 0.00 in0.0 mm 0.00 in0.0 mm 0.00 in0.0 mm
07:48 AM 26.0°F-3.3°C 12.9°F-10.6°C 57% 4.0 mph ENE6.4 kmh ENE 6.0 mph9.7 kmh 30.60 in1036.2 mb 0.00 in0.0 mm 0.00 in0.0 mm 0.00 in0.0 mm
07:46 AM 26.0°F-3.3°C 12.9°F-10.6°C 57% 6.0 mph NE9.7 kmh NE 6.0 mph9.7 kmh 30.59 in1035.9 mb 0.00 in0.0 mm 0.00 in0.0 mm 0.00 in0.0 mm
07:44 AM 26.0°F-3.3°C 12.5°F-10.8°C 56% Calm Calm 5.0 mph8.0 kmh 30.60 in1036.2 mb 0.00 in0.0 mm 0.00 in0.0 mm 0.00 in0.0 mm
07:42 AM 26.0°F-3.3°C 12.5°F-10.8°C 56% 5.0 mph NE8.0 kmh NE 5.0 mph8.0 kmh 30.60 in1036.2 mb 0.00 in0.0 mm 0.00 in0.0 mm 0.00 in0.0 mm
07:40 AM 26.0°F-3.3°C 12.9°F-10.6°C 57% 4.0 mph NE6.4 kmh NE 5.0 mph8.0 kmh 30.60 in1036.2 mb 0.00 in0.0 mm 0.00 in0.0 mm 0.00 in0.0 mm
07:38 AM 25.9°F-3.4°C 12.8°F-10.7°C 57% 2.0 mph NE3.2 kmh NE 5.0 mph8.0 kmh 30.60 in1036.2 mb 0.00 in0.0 mm 0.00 in0.0 mm 0.00 in0.0 mm
07:36 AM 25.9°F-3.4°C 12.4°F-10.9°C 56% Calm Calm 4.0 mph6.4 kmh 30.60 in1036.2 mb 0.00 in0.0 mm 0.00 in0.0 mm 0.00 in0.0 mm
07:34 AM 25.8°F-3.4°C 12.3°F-10.9°C 56% Calm Calm 2.0 mph3.2 kmh 30.60 in1036.2 mb 0.00 in0.0 mm 0.00 in0.0 mm 0.00 in0.0 mm
07:30 AM 25.8°F-3.4°C 11.9°F-11.2°C 55% Calm Calm 6.0 mph9.7 kmh 30.60 in1036.2 mb 0.00 in0.0 mm 0.00 in0.0 mm 0.00 in0.0 mm
07:28 AM 25.8°F-3.4°C 11.9°F-11.2°C 55% 1.0 mph NE1.6 kmh NE 6.0 mph9.7 kmh 30.59 in1035.9 mb 0.00 in0.0 mm 0.00 in0.0 mm 0.00 in0.0 mm
07:26 AM 25.8°F-3.4°C 11.9°F-11.2°C 55% Calm Calm 6.0 mph9.7 kmh 30.59 in1035.9 mb 0.00 in0.0 mm 0.00 in0.0 mm 0.00 in0.0 mm
07:24 AM 25.8°F-3.4°C 12.3°F-10.9°C 56% Calm Calm 6.0 mph9.7 kmh 30.59 in1035.9 mb 0.00 in0.0 mm 0.00 in0.0 mm 0.00 in0.0 mm
07:22 AM 25.8°F-3.4°C 12.3°F-10.9°C 56% 2.0 mph NE3.2 kmh NE 6.0 mph9.7 kmh 30.59 in1035.9 mb 0.00 in0.0 mm 0.00 in0.0 mm 0.00 in0.0 mm
07:20 AM 25.8°F-3.4°C 11.9°F-11.2°C 55% 3.0 mph NE4.8 kmh NE 6.0 mph9.7 kmh 30.59 in1035.9 mb 0.00 in0.0 mm 0.00 in0.0 mm 0.00 in0.0 mm
07:18 AM 25.8°F-3.4°C 12.3°F-10.9°C 56% 4.0 mph ENE6.4 kmh ENE 6.0 mph9.7 kmh 30.59 in1035.9 mb 0.00 in0.0 mm 0.00 in0.0 mm 0.00 in0.0 mm
07:16 AM 25.8°F-3.4°C 12.7°F-10.7°C 57% 2.0 mph ENE3.2 kmh ENE 6.0 mph9.7 kmh 30.58 in1035.6 mb 0.00 in0.0 mm 0.00 in0.0 mm 0.00 in0.0 mm
07:14 AM 25.8°F-3.4°C 12.7°F-10.7°C 57% 2.0 mph ENE3.2 kmh ENE 6.0 mph9.7 kmh 30.58 in1035.6 mb 0.00 in0.0 mm 0.00 in0.0 mm 0.00 in0.0 mm
07:12 AM 25.8°F-3.4°C 12.3°F-10.9°C 56% Calm Calm 6.0 mph9.7 kmh 30.58 in1035.6 mb 0.00 in0.0 mm 0.00 in0.0 mm 0.00 in0.0 mm
07:10 AM 25.8°F-3.4°C 12.3°F-10.9°C 56% 3.0 mph ENE4.8 kmh ENE 6.0 mph9.7 kmh 30.59 in1035.9 mb 0.00 in0.0 mm 0.00 in0.0 mm 0.00 in0.0 mm
07:08 AM 25.8°F-3.4°C 13.1°F-10.5°C 58% 4.0 mph NE6.4 kmh NE 5.0 mph8.0 kmh 30.59 in1035.9 mb 0.00 in0.0 mm 0.00 in0.0 mm 0.00 in0.0 mm
07:06 AM 25.8°F-3.4°C 13.5°F-10.3°C 59% 1.0 mph ENE1.6 kmh ENE 4.0 mph6.4 kmh 30.58 in1035.6 mb 0.00 in0.0 mm 0.00 in0.0 mm 0.00 in0.0 mm
07:04 AM 25.8°F-3.4°C 13.9°F-10.1°C 60% Calm Calm 3.0 mph4.8 kmh 30.58 in1035.6 mb 0.00 in0.0 mm 0.00 in0.0 mm 0.00 in0.0 mm
07:02 AM 25.8°F-3.4°C 13.5°F-10.3°C 59% 1.0 mph ENE1.6 kmh ENE 3.0 mph4.8 kmh 30.58 in1035.6 mb 0.00 in0.0 mm 0.00 in0.0 mm 0.00 in0.0 mm
07:00 AM 25.8°F-3.4°C 13.5°F-10.3°C 59% 4.0 mph ENE6.4 kmh ENE 4.0 mph6.4 kmh 30.59 in1035.9 mb 0.00 in0.0 mm 0.00 in0.0 mm 0.00 in0.0 mm
06:58 AM 25.8°F-3.4°C 13.1°F-10.5°C 58% Calm Calm 3.0 mph4.8 kmh 30.59 in1035.9 mb 0.00 in0.0 mm 0.00 in0.0 mm 0.00 in0.0 mm
06:56 AM 25.8°F-3.4°C 12.7°F-10.7°C 57% 2.0 mph ENE3.2 kmh ENE 3.0 mph4.8 kmh 30.59 in1035.9 mb 0.00 in0.0 mm 0.00 in0.0 mm 0.00 in0.0 mm
06:54 AM 25.8°F-3.4°C 13.1°F-10.5°C 58% 2.0 mph ENE3.2 kmh ENE 3.0 mph4.8 kmh 30.59 in1035.9 mb 0.00 in0.0 mm 0.00 in0.0 mm 0.00 in0.0 mm
06:52 AM 25.8°F-3.4°C 13.5°F-10.3°C 59% 2.0 mph ENE3.2 kmh ENE 3.0 mph4.8 kmh 30.59 in1035.9 mb 0.00 in0.0 mm 0.00 in0.0 mm 0.00 in0.0 mm
06:50 AM 25.8°F-3.4°C 13.9°F-10.1°C 60% Calm Calm 3.0 mph4.8 kmh 30.59 in1035.9 mb 0.00 in0.0 mm 0.00 in0.0 mm 0.00 in0.0 mm
06:48 AM 25.8°F-3.4°C 13.9°F-10.1°C 60% Calm Calm 3.0 mph4.8 kmh 30.59 in1035.9 mb 0.00 in0.0 mm 0.00 in0.0 mm 0.00 in0.0 mm
06:46 AM 25.8°F-3.4°C 13.9°F-10.1°C 60% Calm Calm 3.0 mph4.8 kmh 30.58 in1035.6 mb 0.00 in0.0 mm 0.00 in0.0 mm 0.00 in0.0 mm
06:44 AM 25.8°F-3.4°C 13.9°F-10.1°C 60% Calm Calm 3.0 mph4.8 kmh 30.58 in1035.6 mb 0.00 in0.0 mm 0.00 in0.0 mm 0.00 in0.0 mm
06:42 AM 25.8°F-3.4°C 13.9°F-10.1°C 60% 2.0 mph ENE3.2 kmh ENE 3.0 mph4.8 kmh 30.59 in1035.9 mb 0.00 in0.0 mm 0.00 in0.0 mm 0.00 in0.0 mm
06:40 AM 25.8°F-3.4°C 13.5°F-10.3°C 59% Calm Calm 3.0 mph4.8 kmh 30.59 in1035.9 mb 0.00 in0.0 mm 0.00 in0.0 mm 0.00 in0.0 mm
06:38 AM 25.8°F-3.4°C 13.9°F-10.1°C 60% 2.0 mph ENE3.2 kmh ENE 2.0 mph3.2 kmh 30.59 in1035.9 mb 0.00 in0.0 mm 0.00 in0.0 mm 0.00 in0.0 mm
06:36 AM 25.8°F-3.4°C 13.9°F-10.1°C 60% 1.0 mph ENE1.6 kmh ENE 2.0 mph3.2 kmh 30.58 in1035.6 mb 0.00 in0.0 mm 0.00 in0.0 mm 0.00 in0.0 mm
06:34 AM 25.8°F-3.4°C 13.9°F-10.1°C 60% Calm Calm 2.0 mph3.2 kmh 30.58 in1035.6 mb 0.00 in0.0 mm 0.00 in0.0 mm 0.00 in0.0 mm
06:30 AM 25.9°F-3.4°C 13.6°F-10.2°C 59% 1.0 mph ENE1.6 kmh ENE 6.0 mph9.7 kmh 30.58 in1035.6 mb 0.00 in0.0 mm 0.00 in0.0 mm 0.00 in0.0 mm
06:28 AM 25.9°F-3.4°C 13.9°F-10.1°C 60% Calm Calm 6.0 mph9.7 kmh 30.58 in1035.6 mb 0.00 in0.0 mm 0.00 in0.0 mm 0.00 in0.0 mm
06:26 AM 25.9°F-3.4°C 13.6°F-10.2°C 59% Calm Calm 6.0 mph9.7 kmh 30.56 in1034.9 mb 0.00 in0.0 mm 0.00 in0.0 mm 0.00 in0.0 mm
06:24 AM 25.9°F-3.4°C 13.9°F-10.1°C 60% 1.0 mph NE1.6 kmh NE 6.0 mph9.7 kmh 30.56 in1034.9 mb 0.00 in0.0 mm 0.00 in0.0 mm 0.00 in0.0 mm
06:22 AM 25.9°F-3.4°C 13.6°F-10.2°C 59% 1.0 mph NE1.6 kmh NE 6.0 mph9.7 kmh 30.57 in1035.2 mb 0.00 in0.0 mm 0.00 in0.0 mm 0.00 in0.0 mm
06:20 AM 25.9°F-3.4°C 13.9°F-10.1°C 60% 1.0 mph NE1.6 kmh NE 6.0 mph9.7 kmh 30.57 in1035.2 mb 0.00 in0.0 mm 0.00 in0.0 mm 0.00 in0.0 mm
06:18 AM 25.9°F-3.4°C 13.6°F-10.2°C 59% 1.0 mph NE1.6 kmh NE 6.0 mph9.7 kmh 30.58 in1035.6 mb 0.00 in0.0 mm 0.00 in0.0 mm 0.00 in0.0 mm
06:16 AM 25.9°F-3.4°C 13.6°F-10.2°C 59% Calm Calm 6.0 mph9.7 kmh 30.58 in1035.6 mb 0.00 in0.0 mm 0.00 in0.0 mm 0.00 in0.0 mm
06:14 AM 25.9°F-3.4°C 13.6°F-10.2°C 59% Calm Calm 6.0 mph9.7 kmh 30.57 in1035.2 mb 0.00 in0.0 mm 0.00 in0.0 mm 0.00 in0.0 mm
06:12 AM 26.0°F-3.3°C 13.7°F-10.2°C 59% 2.0 mph NE3.2 kmh NE 6.0 mph9.7 kmh 30.57 in1035.2 mb 0.00 in0.0 mm 0.00 in0.0 mm 0.00 in0.0 mm
06:10 AM 26.0°F-3.3°C 13.3°F-10.4°C 58% 3.0 mph NE4.8 kmh NE 6.0 mph9.7 kmh 30.57 in1035.2 mb 0.00 in0.0 mm 0.00 in0.0 mm 0.00 in0.0 mm
06:08 AM 26.0°F-3.3°C 13.3°F-10.4°C 58% Calm Calm 6.0 mph9.7 kmh 30.57 in1035.2 mb 0.00 in0.0 mm 0.00 in0.0 mm 0.00 in0.0 mm
06:06 AM 26.0°F-3.3°C 13.7°F-10.2°C 59% 3.0 mph E4.8 kmh E 6.0 mph9.7 kmh 30.56 in1034.9 mb 0.00 in0.0 mm 0.00 in0.0 mm 0.00 in0.0 mm
06:04 AM 26.0°F-3.3°C 13.7°F-10.2°C 59% 2.0 mph ENE3.2 kmh ENE 4.0 mph6.4 kmh 30.57 in1035.2 mb 0.00 in0.0 mm 0.00 in0.0 mm 0.00 in0.0 mm
06:02 AM 26.1°F-3.3°C 13.8°F-10.1°C 59% Calm Calm 1.0 mph1.6 kmh 30.57 in1035.2 mb 0.00 in0.0 mm 0.00 in0.0 mm 0.00 in0.0 mm
05:58 AM 26.1°F-3.3°C 13.8°F-10.1°C 59% 3.0 mph ENE4.8 kmh ENE 5.0 mph8.0 kmh 30.57 in1035.2 mb 0.00 in0.0 mm 0.00 in0.0 mm 0.00 in0.0 mm
05:56 AM 26.1°F-3.3°C 13.8°F-10.1°C 59% Calm Calm 5.0 mph8.0 kmh 30.58 in1035.6 mb 0.00 in0.0 mm 0.00 in0.0 mm 0.00 in0.0 mm
05:54 AM 26.2°F-3.2°C 14.2°F-9.9°C 60% 1.0 mph ENE1.6 kmh ENE 5.0 mph8.0 kmh 30.58 in1035.6 mb 0.00 in0.0 mm 0.00 in0.0 mm 0.00 in0.0 mm
05:52 AM 26.1°F-3.3°C 13.8°F-10.1°C 59% 2.0 mph NE3.2 kmh NE 5.0 mph8.0 kmh 30.58 in1035.6 mb 0.00 in0.0 mm 0.00 in0.0 mm 0.00 in0.0 mm
05:50 AM 26.1°F-3.3°C 13.8°F-10.1°C 59% Calm Calm 5.0 mph8.0 kmh 30.59 in1035.9 mb 0.00 in0.0 mm 0.00 in0.0 mm 0.00 in0.0 mm
05:48 AM 26.1°F-3.3°C 14.1°F-9.9°C 60% 1.0 mph NE1.6 kmh NE 5.0 mph8.0 kmh 30.58 in1035.6 mb 0.00 in0.0 mm 0.00 in0.0 mm 0.00 in0.0 mm
05:46 AM 26.1°F-3.3°C 13.4°F-10.3°C 58% Calm Calm 5.0 mph8.0 kmh 30.58 in1035.6 mb 0.00 in0.0 mm 0.00 in0.0 mm 0.00 in0.0 mm
05:44 AM 26.2°F-3.2°C 13.8°F-10.1°C 59% 1.0 mph NE1.6 kmh NE 5.0 mph8.0 kmh 30.57 in1035.2 mb 0.00 in0.0 mm 0.00 in0.0 mm 0.00 in0.0 mm
05:42 AM 26.2°F-3.2°C 13.8°F-10.1°C 59% 2.0 mph NE3.2 kmh NE 5.0 mph8.0 kmh 30.58 in1035.6 mb 0.00 in0.0 mm 0.00 in0.0 mm 0.00 in0.0 mm
05:40 AM 26.2°F-3.2°C 13.8°F-10.1°C 59% 5.0 mph NE8.0 kmh NE 5.0 mph8.0 kmh 30.57 in1035.2 mb 0.00 in0.0 mm 0.00 in0.0 mm 0.00 in0.0 mm
05:38 AM 26.2°F-3.2°C 13.8°F-10.1°C 59% Calm Calm 3.0 mph4.8 kmh 30.58 in1035.6 mb 0.00 in0.0 mm 0.00 in0.0 mm 0.00 in0.0 mm
05:36 AM 26.2°F-3.2°C 13.5°F-10.3°C 58% Calm Calm 3.0 mph4.8 kmh 30.58 in1035.6 mb 0.00 in0.0 mm 0.00 in0.0 mm 0.00 in0.0 mm
05:34 AM 26.2°F-3.2°C 13.5°F-10.3°C 58% 1.0 mph NE1.6 kmh NE 3.0 mph4.8 kmh 30.58 in1035.6 mb 0.00 in0.0 mm 0.00 in0.0 mm 0.00 in0.0 mm
05:30 AM 26.3°F-3.2°C 13.6°F-10.2°C 58% 1.0 mph NE1.6 kmh NE 4.0 mph6.4 kmh 30.59 in1035.9 mb 0.00 in0.0 mm 0.00 in0.0 mm 0.00 in0.0 mm
05:28 AM 26.3°F-3.2°C 13.9°F-10.1°C 59% Calm Calm 4.0 mph6.4 kmh 30.59 in1035.9 mb 0.00 in0.0 mm 0.00 in0.0 mm 0.00 in0.0 mm
05:26 AM 26.3°F-3.2°C 13.9°F-10.1°C 59% Calm Calm 4.0 mph6.4 kmh 30.58 in1035.6 mb 0.00 in0.0 mm 0.00 in0.0 mm 0.00 in0.0 mm
05:24 AM 26.3°F-3.2°C 13.9°F-10.1°C 59% Calm Calm 4.0 mph6.4 kmh 30.58 in1035.6 mb 0.00 in0.0 mm 0.00 in0.0 mm 0.00 in0.0 mm
05:22 AM 26.3°F-3.2°C 13.6°F-10.2°C 58% 2.0 mph NE3.2 kmh NE 4.0 mph6.4 kmh 30.58 in1035.6 mb 0.00 in0.0 mm 0.00 in0.0 mm 0.00 in0.0 mm
05:20 AM 26.3°F-3.2°C 13.6°F-10.2°C 58% Calm Calm 4.0 mph6.4 kmh 30.58 in1035.6 mb 0.00 in0.0 mm 0.00 in0.0 mm 0.00 in0.0 mm
05:18 AM 26.4°F-3.1°C 13.6°F-10.2°C 58% Calm Calm 4.0 mph6.4 kmh 30.58 in1035.6 mb 0.00 in0.0 mm 0.00 in0.0 mm 0.00 in0.0 mm
05:16 AM 26.4°F-3.1°C 13.6°F-10.2°C 58% 2.0 mph NE3.2 kmh NE 4.0 mph6.4 kmh 30.58 in1035.6 mb 0.00 in0.0 mm 0.00 in0.0 mm 0.00 in0.0 mm
05:14 AM 26.4°F-3.1°C 14.0°F-10.0°C 59% 1.0 mph NE1.6 kmh NE 4.0 mph6.4 kmh 30.58 in1035.6 mb 0.00 in0.0 mm 0.00 in0.0 mm 0.00 in0.0 mm
05:12 AM 26.4°F-3.1°C 13.6°F-10.2°C 58% Calm Calm 4.0 mph6.4 kmh 30.58 in1035.6 mb 0.00 in0.0 mm 0.00 in0.0 mm 0.00 in0.0 mm
05:10 AM 26.4°F-3.1°C 13.6°F-10.2°C 58% 1.0 mph NE1.6 kmh NE 4.0 mph6.4 kmh 30.58 in1035.6 mb 0.00 in0.0 mm 0.00 in0.0 mm 0.00 in0.0 mm
05:08 AM 26.4°F-3.1°C 13.6°F-10.2°C 58% Calm Calm 4.0 mph6.4 kmh 30.58 in1035.6 mb 0.00 in0.0 mm 0.00 in0.0 mm 0.00 in0.0 mm
05:06 AM 26.5°F-3.1°C 13.7°F-10.2°C 58% 3.0 mph NE4.8 kmh NE 4.0 mph6.4 kmh 30.58 in1035.6 mb 0.00 in0.0 mm 0.00 in0.0 mm 0.00 in0.0 mm
05:04 AM 26.5°F-3.1°C 13.7°F-10.2°C 58% Calm Calm 1.0 mph1.6 kmh 30.59 in1035.9 mb 0.00 in0.0 mm 0.00 in0.0 mm 0.00 in0.0 mm
05:02 AM 26.5°F-3.1°C 13.7°F-10.2°C 58% Calm Calm -- 30.59 in1035.9 mb 0.00 in0.0 mm 0.00 in0.0 mm 0.00 in0.0 mm
05:00 AM 26.5°F-3.1°C 14.1°F-9.9°C 59% Calm Calm 4.0 mph6.4 kmh 30.59 in1035.9 mb 0.00 in0.0 mm 0.00 in0.0 mm 0.00 in0.0 mm
04:58 AM 26.5°F-3.1°C 13.7°F-10.2°C 58% Calm Calm 4.0 mph6.4 kmh 30.59 in1035.9 mb 0.00 in0.0 mm 0.00 in0.0 mm 0.00 in0.0 mm
04:56 AM 26.5°F-3.1°C 13.3°F-10.4°C 57% 1.0 mph NE1.6 kmh NE 4.0 mph6.4 kmh 30.59 in1035.9 mb 0.00 in0.0 mm 0.00 in0.0 mm 0.00 in0.0 mm
04:54 AM 26.5°F-3.1°C 13.3°F-10.4°C 57% 1.0 mph NE1.6 kmh NE 4.0 mph6.4 kmh 30.59 in1035.9 mb 0.00 in0.0 mm 0.00 in0.0 mm 0.00 in0.0 mm
04:52 AM 26.5°F-3.1°C 13.7°F-10.2°C 58% 4.0 mph NE6.4 kmh NE 4.0 mph6.4 kmh 30.59 in1035.9 mb 0.00 in0.0 mm 0.00 in0.0 mm 0.00 in0.0 mm
04:50 AM 26.5°F-3.1°C 13.7°F-10.2°C 58% 1.0 mph NNW1.6 kmh NNW 3.0 mph4.8 kmh 30.58 in1035.6 mb 0.00 in0.0 mm 0.00 in0.0 mm 0.00 in0.0 mm
04:48 AM 26.5°F-3.1°C 13.7°F-10.2°C 58% 2.0 mph NNW3.2 kmh NNW 3.0 mph4.8 kmh 30.58 in1035.6 mb 0.00 in0.0 mm 0.00 in0.0 mm 0.00 in0.0 mm
04:46 AM 26.5°F-3.1°C 14.1°F-9.9°C 59% Calm Calm 3.0 mph4.8 kmh 30.58 in1035.6 mb 0.00 in0.0 mm 0.00 in0.0 mm 0.00 in0.0 mm
04:44 AM 26.5°F-3.1°C 14.1°F-9.9°C 59% Calm Calm 3.0 mph4.8 kmh 30.58 in1035.6 mb 0.00 in0.0 mm 0.00 in0.0 mm 0.00 in0.0 mm
04:42 AM 26.5°F-3.1°C 13.7°F-10.2°C 58% Calm Calm 3.0 mph4.8 kmh 30.59 in1035.9 mb 0.00 in0.0 mm 0.00 in0.0 mm 0.00 in0.0 mm
04:40 AM 26.4°F-3.1°C 13.6°F-10.2°C 58% Calm Calm 3.0 mph4.8 kmh 30.59 in1035.9 mb 0.00 in0.0 mm 0.00 in0.0 mm 0.00 in0.0 mm
04:38 AM 26.5°F-3.1°C 14.1°F-9.9°C 59% 1.0 mph NNW1.6 kmh NNW 3.0 mph4.8 kmh 30.59 in1035.9 mb 0.00 in0.0 mm 0.00 in0.0 mm 0.00 in0.0 mm
04:36 AM 26.5°F-3.1°C 14.1°F-9.9°C 59% Calm Calm 3.0 mph4.8 kmh 30.59 in1035.9 mb 0.00 in0.0 mm 0.00 in0.0 mm 0.00 in0.0 mm
04:34 AM 26.5°F-3.1°C 14.1°F-9.9°C 59% Calm Calm 3.0 mph4.8 kmh 30.58 in1035.6 mb 0.00 in0.0 mm 0.00 in0.0 mm 0.00 in0.0 mm
04:30 AM 26.5°F-3.1°C 14.1°F-9.9°C 59% 1.0 mph NNW1.6 kmh NNW 3.0 mph4.8 kmh 30.59 in1035.9 mb 0.00 in0.0 mm 0.00 in0.0 mm 0.00 in0.0 mm
04:28 AM 26.5°F-3.1°C 14.1°F-9.9°C 59% 1.0 mph NNW1.6 kmh NNW 3.0 mph4.8 kmh 30.59 in1035.9 mb 0.00 in0.0 mm 0.00 in0.0 mm 0.00 in0.0 mm
04:26 AM 26.5°F-3.1°C 14.5°F-9.7°C 60% Calm Calm 3.0 mph4.8 kmh 30.59 in1035.9 mb 0.00 in0.0 mm 0.00 in0.0 mm 0.00 in0.0 mm
04:24 AM 26.5°F-3.1°C 14.5°F-9.7°C 60% Calm Calm 3.0 mph4.8 kmh 30.59 in1035.9 mb 0.00 in0.0 mm 0.00 in0.0 mm 0.00 in0.0 mm
04:22 AM 26.5°F-3.1°C 14.5°F-9.7°C 60% Calm Calm 3.0 mph4.8 kmh 30.59 in1035.9 mb 0.00 in0.0 mm 0.00 in0.0 mm 0.00 in0.0 mm
04:20 AM 26.5°F-3.1°C 14.5°F-9.7°C 60% Calm Calm 3.0 mph4.8 kmh 30.59 in1035.9 mb 0.00 in0.0 mm 0.00 in0.0 mm 0.00 in0.0 mm
04:18 AM 26.5°F-3.1°C 14.5°F-9.7°C 60% Calm Calm 3.0 mph4.8 kmh 30.59 in1035.9 mb 0.00 in0.0 mm 0.00 in0.0 mm 0.00 in0.0 mm
04:16 AM 26.5°F-3.1°C 14.5°F-9.7°C 60% Calm Calm -- 30.60 in1036.2 mb 0.00 in0.0 mm 0.00 in0.0 mm 0.00 in0.0 mm
04:14 AM 26.5°F-3.1°C 14.1°F-9.9°C 59% Calm Calm -- 30.60 in1036.2 mb 0.00 in0.0 mm 0.00 in0.0 mm 0.00 in0.0 mm
04:12 AM 26.5°F-3.1°C 14.5°F-9.7°C 60% Calm Calm -- 30.60 in1036.2 mb 0.00 in0.0 mm 0.00 in0.0 mm 0.00 in0.0 mm
04:10 AM 26.5°F-3.1°C 14.5°F-9.7°C 60% Calm Calm -- 30.60 in1036.2 mb 0.00 in0.0 mm 0.00 in0.0 mm 0.00 in0.0 mm
04:08 AM 26.5°F-3.1°C 14.9°F-9.5°C 61% Calm Calm -- 30.60 in1036.2 mb 0.00 in0.0 mm 0.00 in0.0 mm 0.00 in0.0 mm
04:06 AM 26.5°F-3.1°C 14.1°F-9.9°C 59% Calm Calm -- 30.60 in1036.2 mb 0.00 in0.0 mm 0.00 in0.0 mm 0.00 in0.0 mm
04:04 AM 26.5°F-3.1°C 13.3°F-10.4°C 57% Calm Calm -- 30.60 in1036.2 mb 0.00 in0.0 mm 0.00 in0.0 mm 0.00 in0.0 mm
04:02 AM 26.5°F-3.1°C 13.3°F-10.4°C 57% Calm Calm -- 30.61 in1036.6 mb 0.00 in0.0 mm 0.00 in0.0 mm 0.00 in0.0 mm
04:00 AM 26.6°F-3.0°C 13.0°F-10.6°C 56% Calm Calm 5.0 mph8.0 kmh 30.60 in1036.2 mb 0.00 in0.0 mm 0.00 in0.0 mm 0.00 in0.0 mm
03:58 AM 26.5°F-3.1°C 13.3°F-10.4°C 57% Calm Calm 5.0 mph8.0 kmh 30.60 in1036.2 mb 0.00 in0.0 mm 0.00 in0.0 mm 0.00 in0.0 mm
03:56 AM 26.6°F-3.0°C 13.4°F-10.3°C 57% Calm Calm 5.0 mph8.0 kmh 30.60 in1036.2 mb 0.00 in0.0 mm 0.00 in0.0 mm 0.00 in0.0 mm
03:54 AM 26.6°F-3.0°C 13.4°F-10.3°C 57% Calm Calm 5.0 mph8.0 kmh 30.60 in1036.2 mb 0.00 in0.0 mm 0.00 in0.0 mm 0.00 in0.0 mm
03:52 AM 26.6°F-3.0°C 13.4°F-10.3°C 57% Calm Calm 5.0 mph8.0 kmh 30.60 in1036.2 mb 0.00 in0.0 mm 0.00 in0.0 mm 0.00 in0.0 mm
03:50 AM 26.6°F-3.0°C 13.4°F-10.3°C 57% Calm Calm 5.0 mph8.0 kmh 30.60 in1036.2 mb 0.00 in0.0 mm 0.00 in0.0 mm 0.00 in0.0 mm
03:48 AM 26.6°F-3.0°C 13.0°F-10.6°C 56% Calm Calm 5.0 mph8.0 kmh 30.59 in1035.9 mb 0.00 in0.0 mm 0.00 in0.0 mm 0.00 in0.0 mm
03:46 AM 26.6°F-3.0°C 12.6°F-10.8°C 55% Calm Calm 5.0 mph8.0 kmh 30.59 in1035.9 mb 0.00 in0.0 mm 0.00 in0.0 mm 0.00 in0.0 mm
03:44 AM 26.6°F-3.0°C 13.0°F-10.6°C 56% 1.0 mph NNW1.6 kmh NNW 5.0 mph8.0 kmh 30.59 in1035.9 mb 0.00 in0.0 mm 0.00 in0.0 mm 0.00 in0.0 mm
03:42 AM 26.6°F-3.0°C 13.0°F-10.6°C 56% Calm Calm 5.0 mph8.0 kmh 30.59 in1035.9 mb 0.00 in0.0 mm 0.00 in0.0 mm 0.00 in0.0 mm
03:40 AM 26.6°F-3.0°C 13.0°F-10.6°C 56% 5.0 mph N8.0 kmh N 5.0 mph8.0 kmh 30.59 in1035.9 mb 0.00 in0.0 mm 0.00 in0.0 mm 0.00 in0.0 mm
03:38 AM 26.7°F-2.9°C 13.1°F-10.5°C 56% Calm Calm 5.0 mph8.0 kmh 30.58 in1035.6 mb 0.00 in0.0 mm 0.00 in0.0 mm 0.00 in0.0 mm
03:36 AM 26.6°F-3.0°C 13.0°F-10.6°C 56% 2.0 mph ENE3.2 kmh ENE 4.0 mph6.4 kmh 30.58 in1035.6 mb 0.00 in0.0 mm 0.00 in0.0 mm 0.00 in0.0 mm
03:34 AM 26.7°F-2.9°C 13.1°F-10.5°C 56% Calm Calm 4.0 mph6.4 kmh 30.58 in1035.6 mb 0.00 in0.0 mm 0.00 in0.0 mm 0.00 in0.0 mm
03:30 AM 26.7°F-2.9°C 13.5°F-10.3°C 57% 2.0 mph NNW3.2 kmh NNW 4.0 mph6.4 kmh 30.57 in1035.2 mb 0.00 in0.0 mm 0.00 in0.0 mm 0.00 in0.0 mm
03:28 AM 26.7°F-2.9°C 13.5°F-10.3°C 57% Calm Calm 4.0 mph6.4 kmh 30.57 in1035.2 mb 0.00 in0.0 mm 0.00 in0.0 mm 0.00 in0.0 mm
03:26 AM 26.7°F-2.9°C 13.5°F-10.3°C 57% 2.0 mph NNW3.2 kmh NNW 4.0 mph6.4 kmh 30.57 in1035.2 mb 0.00 in0.0 mm 0.00 in0.0 mm 0.00 in0.0 mm
03:24 AM 26.7°F-2.9°C 13.9°F-10.1°C 58% Calm Calm 4.0 mph6.4 kmh 30.57 in1035.2 mb 0.00 in0.0 mm 0.00 in0.0 mm 0.00 in0.0 mm
03:22 AM 26.8°F-2.9°C 14.0°F-10.0°C 58% Calm Calm 4.0 mph6.4 kmh 30.57 in1035.2 mb 0.00 in0.0 mm 0.00 in0.0 mm 0.00 in0.0 mm
03:20 AM 26.8°F-2.9°C 14.0°F-10.0°C 58% Calm Calm 3.0 mph4.8 kmh 30.58 in1035.6 mb 0.00 in0.0 mm 0.00 in0.0 mm 0.00 in0.0 mm
03:18 AM 26.8°F-2.9°C 14.0°F-10.0°C 58% Calm Calm 3.0 mph4.8 kmh 30.58 in1035.6 mb 0.00 in0.0 mm 0.00 in0.0 mm 0.00 in0.0 mm
03:16 AM 26.9°F-2.8°C 13.7°F-10.2°C 57% Calm Calm 3.0 mph4.8 kmh 30.59 in1035.9 mb 0.00 in0.0 mm 0.00 in0.0 mm 0.00 in0.0 mm
03:14 AM 26.9°F-2.8°C 13.3°F-10.4°C 56% Calm Calm 3.0 mph4.8 kmh 30.59 in1035.9 mb 0.00 in0.0 mm 0.00 in0.0 mm 0.00 in0.0 mm
03:12 AM 26.9°F-2.8°C 13.7°F-10.2°C 57% Calm Calm 3.0 mph4.8 kmh 30.59 in1035.9 mb 0.00 in0.0 mm 0.00 in0.0 mm 0.00 in0.0 mm
03:10 AM 26.9°F-2.8°C 13.7°F-10.2°C 57% Calm Calm 3.0 mph4.8 kmh 30.59 in1035.9 mb 0.00 in0.0 mm 0.00 in0.0 mm 0.00 in0.0 mm
03:08 AM 26.9°F-2.8°C 13.7°F-10.2°C 57% Calm Calm 3.0 mph4.8 kmh 30.59 in1035.9 mb 0.00 in0.0 mm 0.00 in0.0 mm 0.00 in0.0 mm
03:06 AM 27.0°F-2.8°C 13.8°F-10.1°C 57% 3.0 mph NNW4.8 kmh NNW 3.0 mph4.8 kmh 30.59 in1035.9 mb 0.00 in0.0 mm 0.00 in0.0 mm 0.00 in0.0 mm
03:04 AM 27.0°F-2.8°C 13.8°F-10.1°C 57% 1.0 mph NNW1.6 kmh NNW 1.0 mph1.6 kmh 30.59 in1035.9 mb 0.00 in0.0 mm 0.00 in0.0 mm 0.00 in0.0 mm
03:02 AM 27.0°F-2.8°C 13.4°F-10.3°C 56% Calm Calm -- 30.60 in1036.2 mb 0.00 in0.0 mm 0.00 in0.0 mm 0.00 in0.0 mm
03:00 AM 27.0°F-2.8°C 13.4°F-10.3°C 56% Calm Calm 5.0 mph8.0 kmh 30.60 in1036.2 mb 0.00 in0.0 mm 0.00 in0.0 mm 0.00 in0.0 mm
02:58 AM 27.0°F-2.8°C 13.4°F-10.3°C 56% 1.0 mph NNW1.6 kmh NNW 5.0 mph8.0 kmh 30.60 in1036.2 mb 0.00 in0.0 mm 0.00 in0.0 mm 0.00 in0.0 mm
02:56 AM 27.0°F-2.8°C 13.0°F-10.6°C 55% Calm Calm 5.0 mph8.0 kmh 30.60 in1036.2 mb 0.00 in0.0 mm 0.00 in0.0 mm 0.00 in0.0 mm
02:54 AM 27.0°F-2.8°C 13.0°F-10.6°C 55% Calm Calm 5.0 mph8.0 kmh 30.59 in1035.9 mb 0.00 in0.0 mm 0.00 in0.0 mm 0.00 in0.0 mm
02:52 AM 27.0°F-2.8°C 13.0°F-10.6°C 55% Calm Calm 5.0 mph8.0 kmh 30.59 in1035.9 mb 0.00 in0.0 mm 0.00 in0.0 mm 0.00 in0.0 mm
02:50 AM 27.0°F-2.8°C 13.4°F-10.3°C 56% Calm Calm 5.0 mph8.0 kmh 30.59 in1035.9 mb 0.00 in0.0 mm 0.00 in0.0 mm 0.00 in0.0 mm
02:48 AM 27.1°F-2.7°C 13.5°F-10.3°C 56% Calm Calm 5.0 mph8.0 kmh 30.59 in1035.9 mb 0.00 in0.0 mm 0.00 in0.0 mm 0.00 in0.0 mm
02:46 AM 27.1°F-2.7°C 12.7°F-10.7°C 54% Calm Calm 5.0 mph8.0 kmh 30.59 in1035.9 mb 0.00 in0.0 mm 0.00 in0.0 mm 0.00 in0.0 mm
02:44 AM 27.1°F-2.7°C 12.7°F-10.7°C 54% Calm Calm 5.0 mph8.0 kmh 30.59 in1035.9 mb 0.00 in0.0 mm 0.00 in0.0 mm 0.00 in0.0 mm
02:42 AM 27.1°F-2.7°C 12.7°F-10.7°C 54% Calm Calm 5.0 mph8.0 kmh 30.59 in1035.9 mb 0.00 in0.0 mm 0.00 in0.0 mm 0.00 in0.0 mm
02:40 AM 27.1°F-2.7°C 12.7°F-10.7°C 54% Calm Calm 5.0 mph8.0 kmh 30.58 in1035.6 mb 0.00 in0.0 mm 0.00 in0.0 mm 0.00 in0.0 mm
02:38 AM 27.1°F-2.7°C 12.7°F-10.7°C 54% Calm Calm 5.0 mph8.0 kmh 30.58 in1035.6 mb 0.00 in0.0 mm 0.00 in0.0 mm 0.00 in0.0 mm
02:36 AM 27.2°F-2.7°C 12.8°F-10.7°C 54% 1.0 mph N1.6 kmh N 5.0 mph8.0 kmh 30.58 in1035.6 mb 0.00 in0.0 mm 0.00 in0.0 mm 0.00 in0.0 mm
02:34 AM 27.2°F-2.7°C 12.8°F-10.7°C 54% 2.0 mph N3.2 kmh N 2.0 mph3.2 kmh 30.58 in1035.6 mb 0.00 in0.0 mm 0.00 in0.0 mm 0.00 in0.0 mm
02:30 AM 27.2°F-2.7°C 13.2°F-10.4°C 55% Calm Calm 4.0 mph6.4 kmh 30.59 in1035.9 mb 0.00 in0.0 mm 0.00 in0.0 mm 0.00 in0.0 mm
02:28 AM 27.2°F-2.7°C 12.8°F-10.7°C 54% Calm Calm 4.0 mph6.4 kmh 30.59 in1035.9 mb 0.00 in0.0 mm 0.00 in0.0 mm 0.00 in0.0 mm
02:26 AM 27.2°F-2.7°C 12.8°F-10.7°C 54% 4.0 mph N6.4 kmh N 4.0 mph6.4 kmh 30.59 in1035.9 mb 0.00 in0.0 mm 0.00 in0.0 mm 0.00 in0.0 mm
02:24 AM 27.2°F-2.7°C 11.9°F-11.2°C 52% 1.0 mph N1.6 kmh N 4.0 mph6.4 kmh 30.59 in1035.9 mb 0.00 in0.0 mm 0.00 in0.0 mm 0.00 in0.0 mm
02:22 AM 27.2°F-2.7°C 12.4°F-10.9°C 53% Calm Calm 4.0 mph6.4 kmh 30.59 in1035.9 mb 0.00 in0.0 mm 0.00 in0.0 mm 0.00 in0.0 mm
02:20 AM 27.3°F-2.6°C 12.4°F-10.9°C 53% Calm Calm 4.0 mph6.4 kmh 30.58 in1035.6 mb 0.00 in0.0 mm 0.00 in0.0 mm 0.00 in0.0 mm
02:18 AM 27.3°F-2.6°C 12.4°F-10.9°C 53% Calm Calm 4.0 mph6.4 kmh 30.58 in1035.6 mb 0.00 in0.0 mm 0.00 in0.0 mm 0.00 in0.0 mm
02:16 AM 27.4°F-2.6°C 12.5°F-10.8°C 53% 1.0 mph N1.6 kmh N 4.0 mph6.4 kmh 30.59 in1035.9 mb 0.00 in0.0 mm 0.00 in0.0 mm 0.00 in0.0 mm
02:14 AM 27.4°F-2.6°C 12.5°F-10.8°C 53% 1.0 mph N1.6 kmh N 4.0 mph6.4 kmh 30.58 in1035.6 mb 0.00 in0.0 mm 0.00 in0.0 mm 0.00 in0.0 mm
02:12 AM 27.4°F-2.6°C 12.5°F-10.8°C 53% Calm Calm 4.0 mph6.4 kmh 30.58 in1035.6 mb 0.00 in0.0 mm 0.00 in0.0 mm 0.00 in0.0 mm
02:10 AM 27.4°F-2.6°C 12.1°F-11.1°C 52% 1.0 mph N1.6 kmh N 4.0 mph6.4 kmh 30.59 in1035.9 mb 0.00 in0.0 mm 0.00 in0.0 mm 0.00 in0.0 mm
02:08 AM 27.5°F-2.5°C 12.6°F-10.8°C 53% 1.0 mph N1.6 kmh N 4.0 mph6.4 kmh 30.59 in1035.9 mb 0.00 in0.0 mm 0.00 in0.0 mm 0.00 in0.0 mm
02:06 AM 27.5°F-2.5°C 12.6°F-10.8°C 53% Calm Calm 4.0 mph6.4 kmh 30.59 in1035.9 mb 0.00 in0.0 mm 0.00 in0.0 mm 0.00 in0.0 mm
02:04 AM 27.5°F-2.5°C 12.6°F-10.8°C 53% 1.0 mph N1.6 kmh N 4.0 mph6.4 kmh 30.59 in1035.9 mb 0.00 in0.0 mm 0.00 in0.0 mm 0.00 in0.0 mm
02:02 AM 27.6°F-2.4°C 13.1°F-10.5°C 54% 1.0 mph N1.6 kmh N 3.0 mph4.8 kmh 30.59 in1035.9 mb 0.00 in0.0 mm 0.00 in0.0 mm 0.00 in0.0 mm
02:00 AM 27.6°F-2.4°C 13.1°F-10.5°C 54% Calm Calm 5.0 mph8.0 kmh 30.58 in1035.6 mb 0.00 in0.0 mm 0.00 in0.0 mm 0.00 in0.0 mm
01:58 AM 27.6°F-2.4°C 13.1°F-10.5°C 54% Calm Calm 5.0 mph8.0 kmh 30.59 in1035.9 mb 0.00 in0.0 mm 0.00 in0.0 mm 0.00 in0.0 mm
01:56 AM 27.7°F-2.4°C 13.2°F-10.4°C 54% Calm Calm 5.0 mph8.0 kmh 30.59 in1035.9 mb 0.00 in0.0 mm 0.00 in0.0 mm 0.00 in0.0 mm
01:54 AM 27.7°F-2.4°C 13.7°F-10.2°C 55% 2.0 mph NW3.2 kmh NW 5.0 mph8.0 kmh 30.60 in1036.2 mb 0.00 in0.0 mm 0.00 in0.0 mm 0.00 in0.0 mm
01:52 AM 27.7°F-2.4°C 13.2°F-10.4°C 54% 1.0 mph NW1.6 kmh NW 5.0 mph8.0 kmh 30.60 in1036.2 mb 0.00 in0.0 mm 0.00 in0.0 mm 0.00 in0.0 mm
01:50 AM 27.7°F-2.4°C 13.2°F-10.4°C 54% Calm Calm 5.0 mph8.0 kmh 30.60 in1036.2 mb 0.00 in0.0 mm 0.00 in0.0 mm 0.00 in0.0 mm
01:48 AM 27.8°F-2.3°C 13.3°F-10.4°C 54% Calm Calm 5.0 mph8.0 kmh 30.59 in1035.9 mb 0.00 in0.0 mm 0.00 in0.0 mm 0.00 in0.0 mm
01:46 AM 27.8°F-2.3°C 13.3°F-10.4°C 54% Calm Calm 5.0 mph8.0 kmh 30.59 in1035.9 mb 0.00 in0.0 mm 0.00 in0.0 mm 0.00 in0.0 mm
01:44 AM 27.8°F-2.3°C 12.5°F-10.8°C 52% Calm Calm 5.0 mph8.0 kmh 30.60 in1036.2 mb 0.00 in0.0 mm 0.00 in0.0 mm 0.00 in0.0 mm
01:42 AM 27.8°F-2.3°C 12.0°F-11.1°C 51% 2.0 mph NW3.2 kmh NW 5.0 mph8.0 kmh 30.61 in1036.6 mb 0.00 in0.0 mm 0.00 in0.0 mm 0.00 in0.0 mm
01:40 AM 27.8°F-2.3°C 11.6°F-11.3°C 50% Calm Calm 5.0 mph8.0 kmh 30.61 in1036.6 mb 0.00 in0.0 mm 0.00 in0.0 mm 0.00 in0.0 mm
01:38 AM 27.9°F-2.3°C 12.1°F-11.1°C 51% Calm Calm 5.0 mph8.0 kmh 30.62 in1036.9 mb 0.00 in0.0 mm 0.00 in0.0 mm 0.00 in0.0 mm
01:36 AM 27.9°F-2.3°C 12.6°F-10.8°C 52% 1.0 mph NW1.6 kmh NW 5.0 mph8.0 kmh 30.61 in1036.6 mb 0.00 in0.0 mm 0.00 in0.0 mm 0.00 in0.0 mm
01:34 AM 27.9°F-2.3°C 13.0°F-10.6°C 53% 2.0 mph NW3.2 kmh NW 3.0 mph4.8 kmh 30.60 in1036.2 mb 0.00 in0.0 mm 0.00 in0.0 mm 0.00 in0.0 mm
01:30 AM 27.9°F-2.3°C 12.1°F-11.1°C 51% Calm Calm 6.0 mph9.7 kmh 30.61 in1036.6 mb 0.00 in0.0 mm 0.00 in0.0 mm 0.00 in0.0 mm
01:28 AM 27.9°F-2.3°C 11.7°F-11.3°C 50% Calm Calm 6.0 mph9.7 kmh 30.61 in1036.6 mb 0.00 in0.0 mm 0.00 in0.0 mm 0.00 in0.0 mm
01:26 AM 28.0°F-2.2°C 11.8°F-11.2°C 50% Calm Calm 6.0 mph9.7 kmh 30.61 in1036.6 mb 0.00 in0.0 mm 0.00 in0.0 mm 0.00 in0.0 mm
01:24 AM 28.0°F-2.2°C 12.2°F-11.0°C 51% Calm Calm 6.0 mph9.7 kmh 30.60 in1036.2 mb 0.00 in0.0 mm 0.00 in0.0 mm 0.00 in0.0 mm
01:22 AM 28.0°F-2.2°C 12.2°F-11.0°C 51% 4.0 mph NW6.4 kmh NW 6.0 mph9.7 kmh 30.59 in1035.9 mb 0.00 in0.0 mm 0.00 in0.0 mm 0.00 in0.0 mm
01:20 AM 28.0°F-2.2°C 11.8°F-11.2°C 50% 3.0 mph NE4.8 kmh NE 6.0 mph9.7 kmh 30.59 in1035.9 mb 0.00 in0.0 mm 0.00 in0.0 mm 0.00 in0.0 mm
01:18 AM 28.0°F-2.2°C 11.8°F-11.2°C 50% 3.0 mph NE4.8 kmh NE 6.0 mph9.7 kmh 30.59 in1035.9 mb 0.00 in0.0 mm 0.00 in0.0 mm 0.00 in0.0 mm
01:16 AM 28.0°F-2.2°C 11.3°F-11.5°C 49% Calm Calm 6.0 mph9.7 kmh 30.60 in1036.2 mb 0.00 in0.0 mm 0.00 in0.0 mm 0.00 in0.0 mm
01:14 AM 28.1°F-2.2°C 11.4°F-11.4°C 49% 1.0 mph E1.6 kmh E 6.0 mph9.7 kmh 30.60 in1036.2 mb 0.00 in0.0 mm 0.00 in0.0 mm 0.00 in0.0 mm
01:12 AM 28.1°F-2.2°C 11.4°F-11.4°C 49% Calm Calm 6.0 mph9.7 kmh 30.60 in1036.2 mb 0.00 in0.0 mm 0.00 in0.0 mm 0.00 in0.0 mm
01:10 AM 28.1°F-2.2°C 11.9°F-11.2°C 50% Calm Calm 6.0 mph9.7 kmh 30.59 in1035.9 mb 0.00 in0.0 mm 0.00 in0.0 mm 0.00 in0.0 mm
01:08 AM 28.1°F-2.2°C 12.3°F-10.9°C 51% 2.0 mph N3.2 kmh N 6.0 mph9.7 kmh 30.58 in1035.6 mb 0.00 in0.0 mm 0.00 in0.0 mm 0.00 in0.0 mm
01:06 AM 28.2°F-2.1°C 12.4°F-10.9°C 51% 5.0 mph N8.0 kmh N 6.0 mph9.7 kmh 30.59 in1035.9 mb 0.00 in0.0 mm 0.00 in0.0 mm 0.00 in0.0 mm
01:04 AM 28.2°F-2.1°C 12.0°F-11.1°C 50% Calm Calm 4.0 mph6.4 kmh 30.60 in1036.2 mb 0.00 in0.0 mm 0.00 in0.0 mm 0.00 in0.0 mm
01:02 AM 28.2°F-2.1°C 11.5°F-11.4°C 49% Calm Calm 1.0 mph1.6 kmh 30.60 in1036.2 mb 0.00 in0.0 mm 0.00 in0.0 mm 0.00 in0.0 mm
01:00 AM 28.2°F-2.1°C 12.0°F-11.1°C 50% Calm Calm 6.0 mph9.7 kmh 30.60 in1036.2 mb 0.00 in0.0 mm 0.00 in0.0 mm 0.00 in0.0 mm
12:58 AM 28.2°F-2.1°C 12.0°F-11.1°C 50% Calm Calm 6.0 mph9.7 kmh 30.59 in1035.9 mb 0.00 in0.0 mm 0.00 in0.0 mm 0.00 in0.0 mm
12:56 AM 28.3°F-2.1°C 12.1°F-11.1°C 50% Calm Calm 6.0 mph9.7 kmh 30.58 in1035.6 mb 0.00 in0.0 mm 0.00 in0.0 mm 0.00 in0.0 mm
12:54 AM 28.3°F-2.1°C 12.1°F-11.1°C 50% 6.0 mph NNW9.7 kmh NNW 6.0 mph9.7 kmh 30.58 in1035.6 mb 0.00 in0.0 mm 0.00 in0.0 mm 0.00 in0.0 mm
12:52 AM 28.3°F-2.1°C 12.1°F-11.1°C 50% 3.0 mph N4.8 kmh N 6.0 mph9.7 kmh 30.58 in1035.6 mb 0.00 in0.0 mm 0.00 in0.0 mm 0.00 in0.0 mm
12:50 AM 28.3°F-2.1°C 12.5°F-10.8°C 51% 1.0 mph N1.6 kmh N 6.0 mph9.7 kmh 30.59 in1035.9 mb 0.00 in0.0 mm 0.00 in0.0 mm 0.00 in0.0 mm
12:48 AM 28.3°F-2.1°C 12.1°F-11.1°C 50% Calm Calm 6.0 mph9.7 kmh 30.60 in1036.2 mb 0.00 in0.0 mm 0.00 in0.0 mm 0.00 in0.0 mm
12:46 AM 28.3°F-2.1°C 12.1°F-11.1°C 50% Calm Calm 6.0 mph9.7 kmh 30.59 in1035.9 mb 0.00 in0.0 mm 0.00 in0.0 mm 0.00 in0.0 mm
12:44 AM 28.3°F-2.1°C 12.5°F-10.8°C 51% Calm Calm 6.0 mph9.7 kmh 30.59 in1035.9 mb 0.00 in0.0 mm 0.00 in0.0 mm 0.00 in0.0 mm
12:42 AM 28.4°F-2.0°C 12.6°F-10.8°C 51% 1.0 mph NW1.6 kmh NW 6.0 mph9.7 kmh 30.59 in1035.9 mb 0.00 in0.0 mm 0.00 in0.0 mm 0.00 in0.0 mm
12:40 AM 28.4°F-2.0°C 12.6°F-10.8°C 51% Calm Calm 4.0 mph6.4 kmh 30.59 in1035.9 mb 0.00 in0.0 mm 0.00 in0.0 mm 0.00 in0.0 mm
12:38 AM 28.4°F-2.0°C 12.2°F-11.0°C 50% Calm Calm 4.0 mph6.4 kmh 30.59 in1035.9 mb 0.00 in0.0 mm 0.00 in0.0 mm 0.00 in0.0 mm
12:36 AM 28.4°F-2.0°C 12.2°F-11.0°C 50% 3.0 mph NE4.8 kmh NE 4.0 mph6.4 kmh 30.58 in1035.6 mb 0.00 in0.0 mm 0.00 in0.0 mm 0.00 in0.0 mm
12:34 AM 28.4°F-2.0°C 12.2°F-11.0°C 50% Calm Calm 4.0 mph6.4 kmh 30.58 in1035.6 mb 0.00 in0.0 mm 0.00 in0.0 mm 0.00 in0.0 mm
12:32 AM 28.4°F-2.0°C 12.6°F-10.8°C 51% 1.0 mph NE1.6 kmh NE 4.0 mph6.4 kmh 30.58 in1035.6 mb 0.00 in0.0 mm 0.00 in0.0 mm 0.00 in0.0 mm
12:30 AM 28.4°F-2.0°C 12.6°F-10.8°C 51% 1.0 mph NE1.6 kmh NE 5.0 mph8.0 kmh 30.58 in1035.6 mb 0.00 in0.0 mm 0.00 in0.0 mm 0.00 in0.0 mm
12:28 AM 28.5°F-1.9°C 13.6°F-10.2°C 53% 4.0 mph NE6.4 kmh NE 5.0 mph8.0 kmh 30.58 in1035.6 mb 0.00 in0.0 mm 0.00 in0.0 mm 0.00 in0.0 mm
12:26 AM 28.5°F-1.9°C 13.1°F-10.5°C 52% 1.0 mph NE1.6 kmh NE 5.0 mph8.0 kmh 30.57 in1035.2 mb 0.00 in0.0 mm 0.00 in0.0 mm 0.00 in0.0 mm
12:24 AM 28.5°F-1.9°C 12.7°F-10.7°C 51% Calm Calm 5.0 mph8.0 kmh 30.57 in1035.2 mb 0.00 in0.0 mm 0.00 in0.0 mm 0.00 in0.0 mm
12:22 AM 28.5°F-1.9°C 12.7°F-10.7°C 51% 5.0 mph ENE8.0 kmh ENE 5.0 mph8.0 kmh 30.57 in1035.2 mb 0.00 in0.0 mm 0.00 in0.0 mm 0.00 in0.0 mm
12:20 AM 28.5°F-1.9°C 12.7°F-10.7°C 51% 1.0 mph NW1.6 kmh NW 4.0 mph6.4 kmh 30.57 in1035.2 mb 0.00 in0.0 mm 0.00 in0.0 mm 0.00 in0.0 mm
12:18 AM 28.5°F-1.9°C 13.6°F-10.2°C 53% Calm Calm 4.0 mph6.4 kmh 30.58 in1035.6 mb 0.00 in0.0 mm 0.00 in0.0 mm 0.00 in0.0 mm
12:16 AM 28.5°F-1.9°C 13.6°F-10.2°C 53% Calm Calm 4.0 mph6.4 kmh 30.58 in1035.6 mb 0.00 in0.0 mm 0.00 in0.0 mm 0.00 in0.0 mm
12:14 AM 28.5°F-1.9°C 13.1°F-10.5°C 52% Calm Calm 4.0 mph6.4 kmh 30.57 in1035.2 mb 0.00 in0.0 mm 0.00 in0.0 mm 0.00 in0.0 mm
12:12 AM 28.5°F-1.9°C 13.6°F-10.2°C 53% 1.0 mph NW1.6 kmh NW 4.0 mph6.4 kmh 30.57 in1035.2 mb 0.00 in0.0 mm 0.00 in0.0 mm 0.00 in0.0 mm
12:10 AM 28.5°F-1.9°C 13.1°F-10.5°C 52% 3.0 mph NW4.8 kmh NW 4.0 mph6.4 kmh 30.57 in1035.2 mb 0.00 in0.0 mm 0.00 in0.0 mm 0.00 in0.0 mm
12:08 AM 28.5°F-1.9°C 12.7°F-10.7°C 51% 1.0 mph NW1.6 kmh NW 3.0 mph4.8 kmh 30.57 in1035.2 mb 0.00 in0.0 mm 0.00 in0.0 mm 0.00 in0.0 mm
12:06 AM 28.5°F-1.9°C 12.7°F-10.7°C 51% Calm Calm 3.0 mph4.8 kmh 30.58 in1035.6 mb 0.00 in0.0 mm 0.00 in0.0 mm 0.00 in0.0 mm
12:04 AM 28.6°F-1.9°C 12.8°F-10.7°C 51% 1.0 mph NW1.6 kmh NW 3.0 mph4.8 kmh 30.58 in1035.6 mb 0.00 in0.0 mm 0.00 in0.0 mm 0.00 in0.0 mm
12:02 AM 28.6°F-1.9°C 13.2°F-10.4°C 52% Calm Calm -- 30.58 in1035.6 mb 0.00 in0.0 mm 0.00 in0.0 mm 0.00 in0.0 mm